Flight Track Log - Related Links

Times and Time Zones

All times are in EDT time to prevent confusion due to time zone crossing. See the N600TR flight status page for this flight to view local times or setup timezone preferences in your user account.

Time Position Orientation Groundspeed Altitude Reporting Facility
EDT Latitude Longitude Course Direction KTS MPH feet Rate Location/Type
Mon 08:51:13 PM 36.2156 -95.8814 14° North 156 180 1,400  Level Kansas City Center
Mon 08:52:38 PM 36.2872 -95.8592 14° North 238 274 3,700 1,645 Climbing Kansas City Center
Mon 08:53:17 PM 36.2906 -95.8203 84° East 229 264 4,800 1,782 Climbing Kansas City Center
Mon 08:54:19 PM 36.2614 -95.7400 114° Southeast 252 290 6,700 2,439 Climbing Kansas City Center
Mon 08:55:20 PM 36.2186 -95.6292 116° Southeast 292 336 9,800 2,479 Climbing Kansas City Center
Mon 08:56:20 PM 36.1811 -95.5322 116° Southeast 309 356 11,700 1,463 Climbing Kansas City Center
Mon 08:57:23 PM 36.1358 -95.4186 116° Southeast 360 414 12,800 1,584 Climbing Kansas City Center
Mon 08:58:25 PM 36.0850 -95.2958 117° Southeast 396 456 15,000 2,049 Climbing Kansas City Center
Mon 08:59:26 PM 36.0431 -95.1619 111° Southeast 415 478 17,000 1,968 Climbing Kansas City Center
Mon 09:00:30 PM 36.0117 -94.9872 102° East 432 497 19,100 1,645 Climbing Kansas City Center
Mon 09:02:32 PM 36.0611 -94.6894 73° East 452 520 22,100 1,475 Climbing Kansas City Center
Mon 09:03:00 PM 36.1014 -94.6445 73° East  Level FlightAware Approximate
Mon 09:04:30 PM 36.1686 -94.3856 66° East 461 531 25,000  Level Memphis Center
Mon 09:05:36 PM 36.2172 -94.2397 68° East 480 552 26,200 1,150 Climbing Kansas City Center
Mon 09:06:30 PM 36.2411 -94.0650 80° East 484 557 27,300 1,316 Climbing Memphis Center
Mon 09:07:30 PM 36.1917 -93.9033 111° Southeast 475 547 28,700 850 Climbing Memphis Center
Mon 09:08:30 PM 36.1308 -93.7697 119° Southeast 485 558 29,000 150 Climbing Memphis Center
Mon 09:09:30 PM 36.0722 -93.6158 115° Southeast 490 564 29,000  Level Memphis Center
Mon 09:10:30 PM 36.0306 -93.4550 108° East 490 564 29,000  Level Memphis Center
Mon 09:11:30 PM 35.9928 -93.2944 106° East 485 558 29,000  Level Memphis Center
Mon 09:12:30 PM 35.9528 -93.1314 107° East 485 558 29,000  Level Memphis Center
Mon 09:13:30 PM 35.9039 -92.9761 111° Southeast 485 558 29,000  Level Memphis Center
Mon 09:14:30 PM 35.8508 -92.8156 112° Southeast 491 565 29,000  Level Memphis Center
Mon 09:15:30 PM 35.8017 -92.6631 112° Southeast 491 565 29,000  Level Memphis Center
Mon 09:16:30 PM 35.7506 -92.4956 111° Southeast 491 565 29,000  Level Memphis Center
Mon 09:17:30 PM 35.7031 -92.3383 110° East 486 559 29,000  Level Memphis Center
Mon 09:18:30 PM 35.6511 -92.1811 112° Southeast 486 559 29,000  Level Memphis Center
Mon 09:19:30 PM 35.5969 -92.0269 113° Southeast 486 559 29,000  Level Memphis Center
Mon 09:20:30 PM 35.5553 -91.8703 108° East 486 559 29,000 650 Level Memphis Center
Mon 09:21:30 PM 35.5217 -91.7089 104° East 481 554 30,300 1,000 Climbing Memphis Center
Mon 09:22:30 PM 35.4919 -91.5531 103° East 481 554 31,000 350 Climbing Memphis Center
Mon 09:23:30 PM 35.4517 -91.3944 107° East 476 548 31,000  Level Memphis Center
Mon 09:24:30 PM 35.4175 -91.2258 104° East 481 554 31,000  Level Memphis Center
Mon 09:25:30 PM 35.3869 -91.1008 107° East 494 568 31,000  Level Memphis Center
Mon 09:26:30 PM 35.3461 -90.9297 106° East 480 552 31,000  Level Memphis Center
Mon 09:27:30 PM 35.3069 -90.7794 108° East 465 535 31,000  Level Memphis Center
Mon 09:28:30 PM 35.2575 -90.6367 113° Southeast 459 528 31,000  Level Memphis Center
Mon 09:29:30 PM 35.1931 -90.4942 119° Southeast 466 536 31,000  Level Memphis Center
Mon 09:30:30 PM 35.1283 -90.3569 120° Southeast 471 542 31,000  Level Memphis Center
Mon 09:31:30 PM 35.0906 -90.1897 105° East 459 528 31,000 500 Level Memphis Center
Mon 09:32:30 PM 35.0758 -90.0272 96° East 471 542 32,000 950 Climbing Memphis Center
Mon 09:33:30 PM 35.0606 -89.8675 97° East 471 542 32,900 500 Climbing Memphis Center
Mon 09:34:30 PM 35.0431 -89.7003 97° East 480 552 33,000 50 Climbing Memphis Center
Mon 09:35:30 PM 35.0192 -89.5356 100° East 491 565 33,000  Level Memphis Center
Mon 09:36:30 PM 34.9994 -89.3886 99° East 491 565 33,000  Level Memphis Center
Mon 09:37:30 PM 34.9458 -89.2372 113° Southeast 486 559 33,000  Level Memphis Center
Mon 09:38:30 PM 34.8986 -89.0836 111° Southeast 486 559 33,000  Level Memphis Center
Mon 09:39:30 PM 34.8531 -88.9247 109° East 491 565 33,000  Level Memphis Center
Mon 09:40:30 PM 34.7783 -88.7869 123° Southeast 480 552 33,000  Level Memphis Center
Mon 09:41:30 PM 34.6908 -88.6422 126° Southeast 480 552 33,000  Level Memphis Center
Mon 09:42:30 PM 34.6117 -88.5125 127° Southeast 492 566 33,000  Level Memphis Center
Mon 09:43:30 PM 34.5597 -88.3850 116° Southeast 480 552 33,000  Level Memphis Center
Mon 09:44:30 PM 34.5175 -88.2322 109° East 475 547 33,000  Level Memphis Center
Mon 09:45:30 PM 34.4850 -88.0492 102° East 486 559 33,000  Level Memphis Center
Mon 09:46:30 PM 34.4714 -87.8856 96° East 486 559 33,000  Level Memphis Center
Mon 09:47:30 PM 34.4619 -87.7247 94° East 480 552 33,000 -351 Level Memphis Center
Mon 09:49:04 PM 34.4469 -87.4972 95° East 466 536 32,100 -740 Descending Atlanta Center
Mon 09:50:04 PM 34.4414 -87.3156 92° East 494 568 31,100 -900 Descending Atlanta Center
Mon 09:51:04 PM 34.4372 -87.1619 92° East 477 549 30,300 -800 Descending Atlanta Center
Mon 09:52:04 PM 34.4244 -87.0028 96° East 470 541 29,500 -650 Descending Atlanta Center
Mon 09:53:04 PM 34.4072 -86.8386 97° East 475 547 29,000 -250 Descending Atlanta Center
Mon 09:54:04 PM 34.3922 -86.6794 96° East 480 552 29,000 -250 Level Atlanta Center
Mon 09:55:04 PM 34.3725 -86.5178 98° East 480 552 28,500 -800 Descending Atlanta Center
Mon 09:56:04 PM 34.3547 -86.3636 98° East 480 552 27,400 -1,050 Descending Atlanta Center
Mon 09:57:04 PM 34.3386 -86.2097 97° East 469 540 26,400 -1,050 Descending Atlanta Center
Mon 09:58:04 PM 34.3161 -86.0633 101° East 456 525 25,300 -1,350 Descending Atlanta Center
Mon 09:59:04 PM 34.2914 -85.9169 102° East 446 513 23,700 -1,300 Descending Atlanta Center
Mon 10:00:04 PM 34.2681 -85.7908 103° East 446 513 22,700 -1,250 Descending Atlanta Center
Mon 10:01:04 PM 34.2450 -85.6469 101° East 434 499 21,200 -1,200 Descending Atlanta Center
Mon 10:02:04 PM 34.2197 -85.5058 102° East 429 494 20,300 -1,600 Descending Atlanta Center
Mon 10:03:04 PM 34.2003 -85.3675 100° East 424 488 18,000 -2,450 Descending Atlanta Center
Mon 10:04:04 PM 34.1872 -85.2317 97° East 413 475 15,400 -1,800 Descending Atlanta Center
Mon 10:05:04 PM 34.1508 -85.0956 108° East 396 456 14,400 -700 Descending Atlanta Center
Mon 10:06:04 PM 34.0764 -85.0069 135° Southeast 373 429 14,000 -550 Descending Atlanta Center
Mon 10:07:04 PM 33.9997 -84.9208 137° Southeast 373 429 13,300 -800 Descending Atlanta Center
Mon 10:08:04 PM 33.9211 -84.8250 135° Southeast 388 447 12,400 -650 Descending Atlanta Center
Mon 10:09:04 PM 33.8486 -84.7292 132° Southeast 393 452 12,000 -200 Descending Atlanta Center
Mon 10:10:04 PM 33.7822 -84.6411 132° Southeast 372 428 12,000 -100 Level Atlanta Center
Mon 10:11:04 PM 33.7431 -84.5558 119° Southeast 324 373 11,800 -750 Descending Atlanta Center
Mon 10:12:04 PM 33.7267 -84.4758 104° East 269 310 10,500 -1,300 Descending Atlanta Center
Mon 10:13:04 PM 33.7333 -84.3911 85° East 254 292 9,200 -1,562 Descending Atlanta Center
Mon 10:14:30 PM 33.7500 -84.2667 81° East 249 287 6,700 -1,658 Descending Atlanta TRACON
Mon 10:15:36 PM 33.7167 -84.2000 121° Southeast 248 285 5,000 -1,500 Descending Atlanta TRACON
Mon 10:16:30 PM 33.6667 -84.2167 196° South 211 243 3,700 -842 Descending Atlanta TRACON
Mon 10:17:30 PM 33.6500 -84.2833 253° West 179 206 3,400 -667 Descending Atlanta TRACON
Mon 10:18:36 PM 33.6500 -84.3333 270° West 134 154 2,300 -857 Descending Atlanta TRACON
Mon 10:19:36 PM 33.6500 -84.3667 270° West 122 140 1,600 -700 Descending Atlanta TRACON

Login

Don't have an account? Register now (free) for customized features, flight alerts, and more!